Lake Hallie, Wisconsin
Current Conditions -  °F | °C
As of 9:56 AM on Friday 24 Oct 2014 (Local Time) from KEAU Reporting Station
Overcast Overcast  
Wind Chill: 50°   Ceiling: 400
Heat Index: 50°   Visibility: 9mi
Dew Point: 48°   Wind: 9mph
Humidity: 93%   Direction: 140°SE
Pressure: 29.96"   Gusts: NA
Location:  44.9743°N, 91.4379°W
Report Text: KEAU 241456Z 14008KT 9SM OVC004 10/09 A2996 RMK AO2 SLP148 T01000089 56003
Loading
Personal Weather Stations






























Interactive Weather Map
Tropical Storm Tracking
New forecast layout! Learn more

10-Day Weather Forecast

Advertisements
Track Severe Weather on mobile